Time;durP1;ratioP1;P1;durP2;ratioP2;P2;SDS_P1;SDS_P2;PMS_P1;PMS_P2;Temp;Humidity;BMP_temperature;BMP_pressure;BME280_temperature;BME280_humidity;BME280_pressure;Samples;Min_cycle;Max_cycle;Signal;HPM_P1;HPM_P2
2022/04/08 01:10:09;;;;;;;;;;;;;;;17.03;46.95;99834.41;6333898;22;19941;-86
2022/04/08 01:12:41;;;;;;;;;;;;;;;17.03;46.94;99837.00;6328572;22;19925;-86
2022/04/08 01:18:23;;;;;;;;;;;;;;;17.01;46.98;99842.25;6333610;22;19918;-86
2022/04/08 01:21:24;;;;;;;;;;;;;;;17.01;46.92;99833.59;6331482;22;20285;-86
2022/04/08 01:24:08;;;;;;;;;;;;;;;17.00;46.91;99848.31;6307216;22;19914;-86
2022/04/08 01:26:56;;;;;;;;;;;;;;;17.00;46.93;99844.84;6256223;22;19945;-86
2022/04/08 01:29:59;;;;;;;;;;;;;;;17.00;46.79;99842.25;6253065;23;19896;-85
2022/04/08 01:32:53;;;;;;;;;;;;;;;17.00;46.71;99848.31;6244414;23;19912;-86
2022/04/08 01:35:34;;;;;;;;;;;;;;;16.99;46.41;99836.22;6207793;23;20058;-86
2022/04/08 01:41:21;;;;;;;;;;;;;;;16.98;46.69;99842.28;6175030;23;19953;-86
2022/04/08 01:47:18;;;;;;;;;;;;;;;16.98;46.76;99847.47;6179642;23;19919;-86
2022/04/08 01:50:09;;;;;;;;;;;;;;;16.96;46.90;99849.28;6178903;23;19913;-86
2022/04/08 01:52:58;;;;;;;;;;;;;;;16.95;46.63;99855.38;6120181;23;19913;-86
2022/04/08 01:55:50;;;;;;;;;;;;;;;16.94;46.78;99858.00;6154726;23;19897;-86
2022/04/08 02:05:03;;;;;;;;;;;;;;;16.93;46.88;99877.94;6230672;23;19939;-87
2022/04/08 02:07:55;;;;;;;;;;;;;;;16.93;46.66;99877.94;6239313;23;19907;-86
2022/04/08 02:10:42;;;;;;;;;;;;;;;16.92;46.48;99876.25;6189432;23;20579;-86
2022/04/08 02:13:15;;;;;;;;;;;;;;;16.92;46.55;99875.34;6145350;23;19900;-86
2022/04/08 02:15:44;;;;;;;;;;;;;;;16.92;46.47;99881.44;6122552;23;19932;-86
2022/04/08 02:18:18;;;;;;;;;;;;;;;16.92;46.66;99876.25;6185415;23;19912;-87
2022/04/08 02:21:26;;;;;;;;;;;;;;;16.93;46.62;99879.69;6149920;23;19928;-86
2022/04/08 02:27:26;;;;;;;;;;;;;;;16.91;46.70;99879.72;6149957;23;19920;-86
2022/04/08 02:30:16;;;;;;;;;;;;;;;16.91;46.72;99879.72;6091533;23;19917;-86
2022/04/08 02:33:13;;;;;;;;;;;;;;;16.92;46.55;99870.16;6085786;23;19929;-86
2022/04/08 02:35:44;;;;;;;;;;;;;;;16.91;46.63;99868.47;6061949;23;19938;-86
2022/04/08 02:38:31;;;;;;;;;;;;;;;16.90;46.53;99877.13;5991918;23;19925;-85
2022/04/08 02:41:36;;;;;;;;;;;;;;;16.90;46.57;99874.53;6034143;23;19917;-86
2022/04/08 02:44:35;;;;;;;;;;;;;;;16.89;46.57;99873.69;6013207;23;19954;-86
2022/04/08 02:47:29;;;;;;;;;;;;;;;16.88;46.65;99874.59;6035693;23;19910;-86
2022/04/08 02:50:31;;;;;;;;;;;;;;;16.89;46.53;99880.63;6061194;23;20294;-85
2022/04/08 02:53:21;;;;;;;;;;;;;;;16.89;46.42;99875.44;6041690;23;19985;-86
2022/04/08 02:56:23;;;;;;;;;;;;;;;16.90;46.62;99885.81;6097761;23;19897;-86
2022/04/08 02:59:04;;;;;;;;;;;;;;;16.88;46.52;99890.19;6097542;23;19909;-86
2022/04/08 03:01:45;;;;;;;;;;;;;;;16.87;46.52;99885.84;6114910;23;19909;-85
2022/04/08 03:07:16;;;;;;;;;;;;;;;16.87;46.69;99891.06;6166336;23;19895;-85
2022/04/08 03:10:14;;;;;;;;;;;;;;;16.87;46.46;99896.25;6100630;23;19908;-86
2022/04/08 03:12:43;;;;;;;;;;;;;;;16.88;46.45;99897.13;6138710;23;19944;-86
2022/04/08 03:18:31;;;;;;;;;;;;;;;16.88;46.29;99900.56;6150909;23;19989;-86
2022/04/08 03:24:09;;;;;;;;;;;;;;;16.86;46.51;99902.34;6210709;23;19939;-86
2022/04/08 03:27:26;;;;;;;;;;;;;;;16.86;46.48;99910.16;6035910;23;19901;-86
2022/04/08 03:30:17;;;;;;;;;;;;;;;16.86;46.37;99907.53;6034960;23;19921;-86
2022/04/08 03:32:48;;;;;;;;;;;;;;;16.85;46.61;99909.31;6172223;23;19892;-86
2022/04/08 03:35:37;;;;;;;;;;;;;;;16.84;46.38;99899.78;6161194;23;19923;-86
2022/04/08 03:41:47;;;;;;;;;;;;;;;16.83;46.55;99903.28;6297114;22;19953;-85
2022/04/08 03:47:45;;;;;;;;;;;;;;;16.82;46.59;99906.75;6208942;23;19949;-83
2022/04/08 03:50:41;;;;;;;;;;;;;;;16.82;46.48;99911.09;6147267;23;19893;-83
2022/04/08 03:59:46;;;;;;;;;;;;;;;16.80;46.54;99903.31;6120137;23;19937;-83
2022/04/08 04:02:30;;;;;;;;;;;;;;;16.80;46.28;99897.28;6062699;23;19910;-83
2022/04/08 04:08:08;;;;;;;;;;;;;;;16.79;46.37;99901.59;6120350;23;19916;-83
2022/04/08 04:13:36;;;;;;;;;;;;;;;16.79;46.27;99896.41;6150532;23;19936;-83
2022/04/08 04:16:05;;;;;;;;;;;;;;;16.78;46.35;99899.03;6236393;23;19912;-83
2022/04/08 04:27:56;;;;;;;;;;;;;;;16.76;46.57;99895.59;6263848;23;19937;-84
2022/04/08 04:30:43;;;;;;;;;;;;;;;16.77;46.28;99894.72;6269918;23;19942;-83
2022/04/08 04:33:12;;;;;;;;;;;;;;;16.76;46.31;99903.38;6276276;22;19911;-83
2022/04/08 04:38:46;;;;;;;;;;;;;;;16.73;46.48;99903.47;6304718;22;19929;-83
2022/04/08 04:44:21;;;;;;;;;;;;;;;16.74;46.18;99899.97;6304398;22;19930;-83
2022/04/08 04:46:54;;;;;;;;;;;;;;;16.74;46.23;99899.97;6302087;22;19908;-83
2022/04/08 04:49:39;;;;;;;;;;;;;;;16.74;46.31;99893.03;6278763;22;19939;-83
2022/04/08 05:32:12;;;;;;;;;;;;;;;16.98;46.47;99901.22;6256149;22;20706;31
2022/04/08 05:35:34;;;;;;;;;;;;;;;17.05;46.25;99900.22;6237085;22;19920;-83
2022/04/08 05:51:28;;;;;;;;;;;;;;;17.30;45.90;99887.50;6327395;22;19925;-80
2022/04/08 05:57:00;;;;;;;;;;;;;;;17.35;46.15;99871.78;6291688;22;19910;-83
2022/04/08 06:07:45;;;;;;;;;;;;;;;18.36;43.85;99876.16;6334232;22;19951;-86
2022/04/08 06:10:11;;;;;;;;;;;;;;;18.64;43.08;99871.00;6293594;22;20319;-87
2022/04/08 06:12:36;;;;;;;;;;;;;;;18.65;43.22;99867.50;6283692;22;19918;-88
2022/04/08 06:15:01;;;;;;;;;;;;;;;18.63;43.31;99871.91;6257955;22;19985;-87
2022/04/08 06:17:34;;;;;;;;;;;;;;;18.48;43.50;99876.66;6259786;22;19914;-85
2022/04/08 06:20:01;;;;;;;;;;;;;;;18.42;43.67;99882.06;6303961;22;19959;-84
2022/04/08 06:22:26;;;;;;;;;;;;;;;18.52;43.55;99876.59;6331251;22;19907;-83
2022/04/08 06:27:57;;;;;;;;;;;;;;;19.00;42.05;99874.28;6322288;22;19918;-88
2022/04/08 06:30:22;;;;;;;;;;;;;;;19.59;40.94;99872.44;6285323;22;19933;-87
2022/04/08 06:32:50;;;;;;;;;;;;;;;19.88;40.30;99879.31;6258696;22;19911;-87
2022/04/08 06:35:15;;;;;;;;;;;;;;;19.95;40.34;99873.00;6283934;22;19915;-88
2022/04/08 06:37:41;;;;;;;;;;;;;;;19.83;40.58;99876.84;6257459;22;20327;-86
2022/04/08 06:40:09;;;;;;;;;;;;;;;19.91;40.40;99879.22;6257231;22;19915;-87
2022/04/08 06:42:35;;;;;;;;;;;;;;;19.86;40.47;99878.50;6283920;22;19906;-87
2022/04/08 06:45:01;;;;;;;;;;;;;;;19.72;40.69;99872.00;6282787;22;19949;-86
2022/04/08 06:47:26;;;;;;;;;;;;;;;19.73;40.68;99881.56;6256849;22;19918;-87
2022/04/08 06:49:52;;;;;;;;;;;;;;;19.94;40.34;99873.88;6283135;22;19907;-86
2022/04/08 06:52:17;;;;;;;;;;;;;;;19.95;40.38;99883.44;6289030;22;19914;-88
2022/04/08 06:54:42;;;;;;;;;;;;;;;19.88;40.51;99874.97;6259934;22;19911;-90
2022/04/08 06:57:08;;;;;;;;;;;;;;;19.72;40.79;99871.16;6258722;22;19997;-89
2022/04/08 06:59:34;;;;;;;;;;;;;;;19.66;41.04;99871.31;6260965;22;19945;-90
2022/04/08 07:01:59;;;;;;;;;;;;;;;19.46;41.54;99879.81;6264686;22;19910;-86
2022/04/08 07:09:57;;;;;;;;;;;;;;;19.64;41.04;99880.97;6317623;22;19918;-87
2022/04/08 07:18:14;;;;;;;;;;;;;;;20.87;38.54;99889.72;6269304;22;19919;-90
2022/04/08 07:20:39;;;;;;;;;;;;;;;21.70;36.62;99883.81;6257620;22;20345;-89
2022/04/08 07:23:05;;;;;;;;;;;;;;;20.50;38.98;99891.06;6257313;22;20014;-90
2022/04/08 07:38:57;;;;;;;;;;;;;;;21.41;37.61;99877.16;6318251;22;19968;-88
2022/04/08 07:41:23;;;;;;;;;;;;;;;23.70;32.90;99866.84;6256368;22;19942;-87
2022/04/08 07:43:50;;;;;;;;;;;;;;;20.40;38.68;99872.25;6282188;22;19906;-89
2022/04/08 07:51:44;;;;;;;;;;;;;;;21.27;37.51;99869.84;6268028;22;20381;-86
2022/04/08 07:54:09;;;;;;;;;;;;;;;19.70;40.62;99872.97;6293569;22;19922;-87
2022/04/08 10:47:17;;;;;;;;;;;;;;;18.16;44.18;99858.47;6272838;23;19975;-86
2022/04/08 10:53:29;;;;;;;;;;;;;;;18.20;44.21;99865.31;6212398;23;19919;-87
2022/04/08 13:26:43;;;;;;;;;;;;;;;18.15;43.87;99838.53;6244985;22;19978;31
2022/04/08 13:48:09;;;;;;;;;;;;;;;18.13;43.82;99848.16;6302388;22;19907;-83
2022/04/08 17:25:32;;;;;;;;;;;;;;;17.57;45.05;100012.59;6319238;22;19962;-82
2022/04/08 17:31:02;;;;;;;;;;;;;;;17.55;45.28;100011.78;6282325;22;19990;-82
2022/04/08 17:36:02;;;;;;;;;;;;;;;17.56;45.51;100018.69;6274478;22;19913;-82
2022/04/08 17:38:28;;;;;;;;;;;;;;;17.55;45.36;100012.66;6275232;22;19908;-83
2022/04/08 17:40:54;;;;;;;;;;;;;;;17.56;45.61;100013.50;6244095;22;19912;-83
2022/04/08 17:43:26;;;;;;;;;;;;;;;17.54;45.48;100016.13;6262638;22;19912;-81
2022/04/08 17:45:51;;;;;;;;;;;;;;;17.54;45.74;100017.88;6265443;22;19931;-81
2022/04/08 17:48:17;;;;;;;;;;;;;;;17.53;45.90;100013.53;6264398;22;19908;-82
2022/04/08 17:50:43;;;;;;;;;;;;;;;17.52;46.43;100017.06;6267062;22;19907;-82
2022/04/08 17:53:14;;;;;;;;;;;;;;;17.51;46.51;100016.19;6265985;22;20296;-83
2022/04/08 17:55:40;;;;;;;;;;;;;;;17.54;47.07;100020.47;6278683;22;19907;-82
2022/04/08 18:29:04;;;;;;;;;;;;;;;17.47;48.19;100041.41;6264728;22;19933;-82
2022/04/08 18:36:41;;;;;;;;;;;;;;;17.44;48.25;100049.28;6278782;22;19910;-84
2022/04/08 18:39:07;;;;;;;;;;;;;;;17.43;48.33;100055.38;6274496;22;19919;-84
2022/04/08 18:41:32;;;;;;;;;;;;;;;17.42;48.17;100058.88;6309458;22;19907;-84
2022/04/08 18:43:58;;;;;;;;;;;;;;;17.41;47.99;100062.34;6308800;22;19907;-85
2022/04/08 18:46:23;;;;;;;;;;;;;;;17.40;47.86;100071.06;6309185;22;19963;-84
2022/04/08 18:48:49;;;;;;;;;;;;;;;17.40;47.92;100065.00;6308949;22;19907;-84
2022/04/08 18:51:17;;;;;;;;;;;;;;;17.40;47.86;100067.59;6335363;22;19918;-84
2022/04/08 18:53:43;;;;;;;;;;;;;;;17.38;47.63;100069.38;6308701;22;19914;-83
2022/04/08 18:56:08;;;;;;;;;;;;;;;17.36;47.71;100068.56;6308434;22;19915;-84
2022/04/08 18:58:34;;;;;;;;;;;;;;;17.36;47.67;100084.16;6308601;22;19929;-85
2022/04/08 19:01:02;;;;;;;;;;;;;;;17.34;47.73;100073.78;6335467;22;19902;-83
2022/04/08 19:03:28;;;;;;;;;;;;;;;17.34;47.77;100078.97;6335075;22;19929;-84
2022/04/08 19:05:54;;;;;;;;;;;;;;;17.34;47.81;100089.38;6308586;22;19951;-83
2022/04/08 19:08:19;;;;;;;;;;;;;;;17.35;47.89;100095.44;6307316;22;19895;-84
2022/04/08 19:10:46;;;;;;;;;;;;;;;17.33;47.99;100094.59;6308837;22;19920;-84
2022/04/08 19:13:14;;;;;;;;;;;;;;;17.32;47.94;100098.09;6309329;22;19958;-83
2022/04/08 19:15:40;;;;;;;;;;;;;;;17.32;48.12;100105.91;6309310;22;19907;-84
2022/04/08 19:18:05;;;;;;;;;;;;;;;17.32;48.04;100113.72;6309187;22;19922;-84
2022/04/08 19:20:31;;;;;;;;;;;;;;;17.32;48.20;100114.56;6309974;22;19936;-85
2022/04/08 19:22:59;;;;;;;;;;;;;;;17.31;48.01;100118.06;6336026;22;19891;-85
2022/04/08 19:25:26;;;;;;;;;;;;;;;17.30;48.03;100126.72;6308940;22;19903;-83
2022/04/08 19:27:51;;;;;;;;;;;;;;;17.29;48.19;100125.03;6335656;22;19907;-84
2022/04/08 19:30:17;;;;;;;;;;;;;;;17.29;48.07;100127.63;6284134;22;19998;-84
2022/04/08 19:32:46;;;;;;;;;;;;;;;17.28;47.96;100124.16;6309117;22;19955;-84
2022/04/08 19:35:11;;;;;;;;;;;;;;;17.29;47.97;100138.03;6309418;22;19918;-85
2022/04/08 19:37:37;;;;;;;;;;;;;;;17.28;48.10;100133.72;6308868;22;19935;-86
2022/04/08 19:40:03;;;;;;;;;;;;;;;17.28;48.06;100133.72;6308584;22;19967;-86
2022/04/08 19:42:29;;;;;;;;;;;;;;;17.28;48.02;100136.31;6309255;22;19915;-85
2022/04/08 19:44:54;;;;;;;;;;;;;;;17.27;48.03;100143.25;6308952;22;19905;-84
2022/04/08 19:47:21;;;;;;;;;;;;;;;17.27;48.01;100142.41;6309074;22;19891;-84
2022/04/08 19:49:46;;;;;;;;;;;;;;;17.26;48.06;100145.88;6335708;22;19891;-84
2022/04/08 19:52:12;;;;;;;;;;;;;;;17.26;48.06;100151.94;6309074;22;19905;-84
2022/04/08 19:57:13;;;;;;;;;;;;;;;17.25;47.94;100150.22;6317670;22;19903;-85
2022/04/08 19:59:38;;;;;;;;;;;;;;;17.25;47.78;100154.59;6310382;22;19915;-85
2022/04/08 20:02:04;;;;;;;;;;;;;;;17.24;47.89;100151.09;6311390;22;19898;-85
2022/04/08 20:09:39;;;;;;;;;;;;;;;17.24;47.72;100163.25;6293008;22;19915;-84
2022/04/08 20:12:05;;;;;;;;;;;;;;;17.25;47.81;100164.97;6310791;22;19937;-84
2022/04/08 20:14:30;;;;;;;;;;;;;;;17.25;47.84;100163.22;6335380;22;19911;-83
2022/04/08 20:16:56;;;;;;;;;;;;;;;17.25;47.65;100168.44;6308692;22;19954;-83
2022/04/08 20:19:24;;;;;;;;;;;;;;;17.24;47.82;100171.91;6310178;22;19914;-84
2022/04/08 20:21:50;;;;;;;;;;;;;;;17.24;48.01;100171.06;6311121;22;19899;-84
2022/04/08 20:24:16;;;;;;;;;;;;;;;17.24;47.75;100171.06;6272378;22;19926;-81
2022/04/08 20:26:41;;;;;;;;;;;;;;;17.22;47.63;100180.63;6239879;22;19956;-81
2022/04/08 20:29:08;;;;;;;;;;;;;;;17.20;47.98;100185.88;6273606;22;19957;-83
2022/04/08 20:44:29;;;;;;;;;;;;;;;17.19;47.53;100207.53;6287340;22;19925;-83
2022/04/08 20:46:55;;;;;;;;;;;;;;;17.20;47.74;100205.78;6309148;22;19891;-83
2022/04/08 20:49:21;;;;;;;;;;;;;;;17.20;47.90;100205.78;6309111;22;19905;-83
2022/04/08 20:51:48;;;;;;;;;;;;;;;17.19;47.64;100217.09;6309554;22;19907;-83
2022/04/08 20:54:14;;;;;;;;;;;;;;;17.18;47.64;100202.34;6309124;22;19907;-84
2022/04/08 20:56:39;;;;;;;;;;;;;;;17.17;47.78;100211.91;6334943;22;19933;-83
2022/04/08 20:59:05;;;;;;;;;;;;;;;17.17;47.56;100208.47;6307517;22;19959;-82
2022/04/08 21:01:30;;;;;;;;;;;;;;;17.17;47.69;100213.66;6306858;22;19918;-82
2022/04/08 21:03:56;;;;;;;;;;;;;;;17.16;47.42;100215.41;6307513;22;19899;-83
2022/04/08 21:12:47;;;;;;;;;;;;;;;17.15;47.42;100224.06;6329269;22;19914;-83
2022/04/08 21:18:23;;;;;;;;;;;;;;;17.15;47.40;100236.22;6271630;23;19976;-85
2022/04/08 21:21:13;;;;;;;;;;;;;;;17.14;47.41;100232.78;6249755;23;19915;-84
2022/04/08 21:23:59;;;;;;;;;;;;;;;17.13;47.45;100227.59;6264543;23;19928;-83
2022/04/08 21:26:41;;;;;;;;;;;;;;;17.14;47.35;100237.97;6269899;23;19942;-84
2022/04/08 21:32:28;;;;;;;;;;;;;;;17.13;47.54;100248.38;6272251;22;19969;-83
2022/04/08 21:38:17;;;;;;;;;;;;;;;17.13;47.32;100254.44;6273002;23;19947;-85
2022/04/08 21:40:58;;;;;;;;;;;;;;;17.12;47.42;100262.28;6216502;23;19907;-83
2022/04/08 21:43:23;;;;;;;;;;;;;;;17.10;47.60;100269.25;6214238;23;19930;-81
2022/04/08 21:46:23;;;;;;;;;;;;;;;17.09;47.48;100270.13;6209484;23;19916;-83
2022/04/08 21:51:51;;;;;;;;;;;;;;;17.05;47.28;100277.97;6143827;23;19916;-80
2022/04/08 21:54:17;;;;;;;;;;;;;;;17.06;47.16;100284.03;6164050;23;19909;-80
2022/04/08 21:56:42;;;;;;;;;;;;;;;17.04;47.04;100289.25;6161882;23;19917;-80
2022/04/08 21:59:09;;;;;;;;;;;;;;;17.03;46.92;100297.94;6139305;23;19925;-80
2022/04/08 22:01:35;;;;;;;;;;;;;;;17.03;46.97;100297.94;6118050;23;19987;-80
2022/04/08 22:04:00;;;;;;;;;;;;;;;17.03;46.79;100302.28;6144770;23;20305;-81
2022/04/08 22:06:26;;;;;;;;;;;;;;;17.03;46.77;100315.28;6168876;23;19915;-80
2022/04/08 22:08:52;;;;;;;;;;;;;;;17.02;46.99;100314.41;6140576;23;20330;-80
2022/04/08 22:11:17;;;;;;;;;;;;;;;17.01;46.71;100317.91;6179379;23;19914;-80
2022/04/08 22:13:42;;;;;;;;;;;;;;;17.01;46.78;100330.06;6198788;23;19999;-80
2022/04/08 22:16:08;;;;;;;;;;;;;;;17.01;46.79;100324.84;6172555;23;19912;-80
2022/04/08 22:18:33;;;;;;;;;;;;;;;17.00;46.66;100326.56;6198164;23;19915;-80
2022/04/08 22:20:58;;;;;;;;;;;;;;;17.01;46.86;100332.66;6173071;23;19912;-80
2022/04/08 22:23:23;;;;;;;;;;;;;;;17.01;46.99;100345.66;6173022;23;19969;-80
2022/04/08 22:25:49;;;;;;;;;;;;;;;17.00;46.69;100349.09;6171414;23;19912;-80
2022/04/08 22:28:15;;;;;;;;;;;;;;;17.01;46.58;100361.25;6197225;23;19908;-80
2022/04/08 22:30:41;;;;;;;;;;;;;;;17.00;46.42;100359.50;6197276;23;20360;-81
2022/04/08 22:33:06;;;;;;;;;;;;;;;17.00;46.49;100367.31;6195790;22;19919;-80
2022/04/08 22:35:32;;;;;;;;;;;;;;;17.00;46.54;100365.56;6286962;22;20282;-80
2022/04/08 22:37:57;;;;;;;;;;;;;;;16.98;46.55;100366.47;6236280;22;19919;-80
2022/04/08 22:40:23;;;;;;;;;;;;;;;16.99;46.52;100376.00;6260874;22;19956;-80
2022/04/08 22:42:48;;;;;;;;;;;;;;;16.97;46.51;100373.41;6234193;22;19934;-80
2022/04/08 22:45:13;;;;;;;;;;;;;;;16.97;46.46;100376.00;6259954;22;19915;-80
2022/04/08 22:47:39;;;;;;;;;;;;;;;16.97;46.54;100378.59;6259164;22;19907;-80
2022/04/08 22:50:06;;;;;;;;;;;;;;;16.97;46.50;100383.81;6233073;22;20243;-80
2022/04/08 22:52:31;;;;;;;;;;;;;;;16.95;46.24;100375.16;6256457;22;19907;-80
2022/04/08 22:54:56;;;;;;;;;;;;;;;16.95;46.53;100393.38;6257065;22;19908;-80
2022/04/08 22:57:22;;;;;;;;;;;;;;;16.95;46.64;100395.97;6284547;22;19919;-80
2022/04/08 22:59:47;;;;;;;;;;;;;;;16.95;46.61;100397.72;6232474;22;19934;-80
2022/04/08 23:02:13;;;;;;;;;;;;;;;16.95;46.33;100397.72;6257445;22;19907;-80
2022/04/08 23:04:38;;;;;;;;;;;;;;;16.95;46.58;100398.56;6290760;22;19914;-80
2022/04/08 23:07:04;;;;;;;;;;;;;;;16.94;46.23;100408.97;6230563;22;19918;-80
2022/04/08 23:09:29;;;;;;;;;;;;;;;16.94;46.07;100412.44;6229621;22;19938;-80
2022/04/08 23:11:55;;;;;;;;;;;;;;;16.94;46.25;100403.78;6229800;22;19911;-80
2022/04/08 23:14:20;;;;;;;;;;;;;;;16.94;46.14;100427.16;6254426;22;19930;-80
2022/04/08 23:16:45;;;;;;;;;;;;;;;16.93;46.31;100428.06;6233767;22;19915;-80
2022/04/08 23:19:10;;;;;;;;;;;;;;;16.91;46.13;100428.06;6275982;22;19959;-80
2022/04/08 23:21:36;;;;;;;;;;;;;;;16.92;46.17;100441.91;6250416;22;19931;-80
2022/04/08 23:24:01;;;;;;;;;;;;;;;16.92;46.04;100431.53;6240472;22;19959;-80
2022/04/08 23:26:26;;;;;;;;;;;;;;;16.91;45.90;100435.03;6237666;22;19911;-81
2022/04/08 23:28:51;;;;;;;;;;;;;;;16.91;46.02;100445.41;6251257;22;19895;-81
2022/04/08 23:31:17;;;;;;;;;;;;;;;16.92;46.18;100444.53;6275939;22;19907;-81
2022/04/08 23:33:42;;;;;;;;;;;;;;;16.90;46.04;100447.16;6265081;22;19907;-80
2022/04/08 23:36:07;;;;;;;;;;;;;;;16.90;45.85;100449.75;6238133;22;19911;-80
2022/04/08 23:38:32;;;;;;;;;;;;;;;16.90;46.20;100454.97;6261475;22;19914;-81
2022/04/08 23:40:59;;;;;;;;;;;;;;;16.89;46.17;100455.81;6261881;22;19933;-80
2022/04/08 23:43:25;;;;;;;;;;;;;;;16.89;46.21;100461.03;6260604;22;19946;-80
2022/04/08 23:45:50;;;;;;;;;;;;;;;16.89;46.11;100465.38;6260280;22;19923;-80
2022/04/08 23:48:15;;;;;;;;;;;;;;;16.89;46.06;100470.56;6290940;22;19918;-80
2022/04/08 23:50:40;;;;;;;;;;;;;;;16.88;45.79;100474.91;6266473;22;19914;-80
2022/04/08 23:53:06;;;;;;;;;;;;;;;16.87;46.06;100491.38;6289834;22;19941;-80
2022/04/08 23:55:31;;;;;;;;;;;;;;;16.88;46.15;100487.91;6265026;22;19915;-81
2022/04/08 23:57:57;;;;;;;;;;;;;;;16.88;46.04;100492.25;6267429;22;19915;-81
